SBI2519 UUDD-UNNT
Flight info
| Callsign | SBI2519 |
|---|---|
| Flight time | N/A |
| Altitude | 33000 |
| Route | DCT OLMUN T629 INLEN/N0417F350 T629 IPSIL T830 LAMGU N604 OGSIN P983 TINRI T448 RUBOR A300 ML R814 SZ W1 GOLIM DCT |
| Aircraft | A320/M-SDFGIJ1RWY/LB1 |
Departure
| Time | 2026-05-07 04:38 |
|---|---|
| Airport | Domodedovo International Airport (UUDD) |
Arrival
| Time | N/A |
|---|---|
| Airport | Novosibirsk Tolmachevo Airport (UNNT) |
| Time | Latitude | Longitude | Altitude | Speed | Heading |
|---|---|---|---|---|---|
| 2026-05-07 04:16 | 55.41828 | 37.88126 | 583 ft | 0 kts | 55° |
| 2026-05-07 04:33 | 55.41838 | 37.88152 | 583 ft | 6 kts | 55° |
| 2026-05-07 04:33 | 55.41861 | 37.88159 | 583 ft | 2 kts | 347° |
| 2026-05-07 04:34 | 55.41874 | 37.88145 | 584 ft | 3 kts | 322° |
| 2026-05-07 04:34 | 55.41885 | 37.88098 | 586 ft | 5 kts | 278° |
| 2026-05-07 04:34 | 55.41867 | 37.88028 | 587 ft | 9 kts | 233° |
| 2026-05-07 04:34 | 55.41847 | 37.87907 | 587 ft | 12 kts | 292° |
| 2026-05-07 04:35 | 55.41913 | 37.87814 | 592 ft | 12 kts | 326° |
| 2026-05-07 04:35 | 55.41983 | 37.87728 | 594 ft | 13 kts | 324° |
| 2026-05-07 04:35 | 55.42065 | 37.87628 | 597 ft | 14 kts | 327° |
| 2026-05-07 04:35 | 55.42137 | 37.87544 | 599 ft | 11 kts | 327° |
| 2026-05-07 04:36 | 55.42181 | 37.87447 | 598 ft | 10 kts | 274° |
| 2026-05-07 04:36 | 55.42151 | 37.87359 | 597 ft | 8 kts | 233° |
| 2026-05-07 04:36 | 55.42116 | 37.87276 | 596 ft | 9 kts | 233° |
| 2026-05-07 04:36 | 55.42078 | 37.87251 | 596 ft | 5 kts | 154° |
| 2026-05-07 04:37 | 55.42052 | 37.87285 | 595 ft | 4 kts | 143° |
| 2026-05-07 04:37 | 55.41967 | 37.87393 | 595 ft | 39 kts | 146° |
| 2026-05-07 04:37 | 55.41534 | 37.87911 | 586 ft | 108 kts | 145° |
| 2026-05-07 04:37 | 55.40746 | 37.88861 | 576 ft | 161 kts | 145° |
| 2026-05-07 04:38 | 55.39784 | 37.90024 | 1031 ft | 172 kts | 146° |
| 2026-05-07 04:38 | 55.38784 | 37.91215 | 1821 ft | 172 kts | 153° |
| 2026-05-07 04:38 | 55.37639 | 37.92053 | 2186 ft | 188 kts | 167° |
| 2026-05-07 04:38 | 55.36315 | 37.92775 | 2403 ft | 210 kts | 166° |
| 2026-05-07 04:39 | 55.34839 | 37.93587 | 2726 ft | 234 kts | 166° |
| 2026-05-07 04:39 | 55.33259 | 37.94474 | 3418 ft | 241 kts | 166° |
| 2026-05-07 04:39 | 55.31615 | 37.95105 | 3889 ft | 242 kts | 187° |
| 2026-05-07 04:39 | 55.30100 | 37.94117 | 4085 ft | 234 kts | 227° |
| 2026-05-07 04:40 | 55.29161 | 37.91810 | 4890 ft | 233 kts | 243° |
| 2026-05-07 04:40 | 55.28478 | 37.89228 | 5695 ft | 234 kts | 248° |
| 2026-05-07 04:40 | 55.28042 | 37.86484 | 6480 ft | 237 kts | 268° |
| 2026-05-07 04:40 | 55.28353 | 37.83636 | 7222 ft | 243 kts | 291° |
| 2026-05-07 04:41 | 55.29366 | 37.81165 | 7809 ft | 260 kts | 317° |
| 2026-05-07 04:41 | 55.30861 | 37.79294 | 8548 ft | 266 kts | 321° |
| 2026-05-07 04:41 | 55.32392 | 37.77452 | 9323 ft | 268 kts | 322° |
| 2026-05-07 04:41 | 55.34097 | 37.76013 | 10045 ft | 278 kts | 339° |
| 2026-05-07 04:42 | 55.36066 | 37.75452 | 10541 ft | 295 kts | 353° |